sensor_id;sensor_type;location;lat;lon;timestamp;P1;durP1;ratioP1;P2;durP2;ratioP2
7383;SDS011;3733;47.994;8.820;2023-05-07T00:00:33;10.30;;;4.30;;
7383;SDS011;3733;47.994;8.820;2023-05-07T00:02:59;4.40;;;4.00;;
7383;SDS011;3733;47.994;8.820;2023-05-07T00:05:26;8.30;;;4.20;;
7383;SDS011;3733;47.994;8.820;2023-05-07T00:07:52;5.73;;;4.17;;
7383;SDS011;3733;47.994;8.820;2023-05-07T00:10:18;4.80;;;4.30;;
7383;SDS011;3733;47.994;8.820;2023-05-07T00:12:44;5.90;;;4.17;;
7383;SDS011;3733;47.994;8.820;2023-05-07T00:15:09;5.27;;;4.40;;
7383;SDS011;3733;47.994;8.820;2023-05-07T00:17:35;7.57;;;4.53;;
7383;SDS011;3733;47.994;8.820;2023-05-07T00:20:02;7.20;;;5.30;;
7383;SDS011;3733;47.994;8.820;2023-05-07T00:22:29;5.63;;;4.93;;
7383;SDS011;3733;47.994;8.820;2023-05-07T00:24:56;6.10;;;4.57;;
7383;SDS011;3733;47.994;8.820;2023-05-07T00:27:21;5.87;;;4.40;;
7383;SDS011;3733;47.994;8.820;2023-05-07T00:29:47;6.67;;;4.90;;
7383;SDS011;3733;47.994;8.820;2023-05-07T00:32:13;5.77;;;4.20;;
7383;SDS011;3733;47.994;8.820;2023-05-07T00:34:39;6.67;;;5.10;;
7383;SDS011;3733;47.994;8.820;2023-05-07T00:37:04;11.03;;;5.20;;
7383;SDS011;3733;47.994;8.820;2023-05-07T00:39:32;5.23;;;4.23;;
7383;SDS011;3733;47.994;8.820;2023-05-07T00:41:58;8.53;;;5.47;;
7383;SDS011;3733;47.994;8.820;2023-05-07T00:44:24;10.07;;;4.90;;
7383;SDS011;3733;47.994;8.820;2023-05-07T00:46:50;5.00;;;4.50;;
7383;SDS011;3733;47.994;8.820;2023-05-07T00:49:15;5.47;;;4.40;;
7383;SDS011;3733;47.994;8.820;2023-05-07T00:51:41;6.87;;;4.40;;
7383;SDS011;3733;47.994;8.820;2023-05-07T00:54:07;7.93;;;5.07;;
7383;SDS011;3733;47.994;8.820;2023-05-07T00:56:34;6.30;;;4.50;;
7383;SDS011;3733;47.994;8.820;2023-05-07T00:59:00;5.17;;;4.40;;
7383;SDS011;3733;47.994;8.820;2023-05-07T01:01:27;7.10;;;4.63;;
7383;SDS011;3733;47.994;8.820;2023-05-07T01:03:53;4.53;;;3.90;;
7383;SDS011;3733;47.994;8.820;2023-05-07T01:06:19;6.57;;;4.53;;
7383;SDS011;3733;47.994;8.820;2023-05-07T01:08:46;5.10;;;4.40;;
7383;SDS011;3733;47.994;8.820;2023-05-07T01:11:15;7.47;;;4.57;;
7383;SDS011;3733;47.994;8.820;2023-05-07T01:13:41;4.90;;;4.33;;
7383;SDS011;3733;47.994;8.820;2023-05-07T01:16:08;5.30;;;4.53;;
7383;SDS011;3733;47.994;8.820;2023-05-07T01:18:34;7.80;;;4.83;;
7383;SDS011;3733;47.994;8.820;2023-05-07T01:21:00;5.63;;;4.40;;
7383;SDS011;3733;47.994;8.820;2023-05-07T01:23:28;5.50;;;5.00;;
7383;SDS011;3733;47.994;8.820;2023-05-07T01:25:55;7.83;;;5.43;;
7383;SDS011;3733;47.994;8.820;2023-05-07T01:28:21;6.60;;;4.70;;
7383;SDS011;3733;47.994;8.820;2023-05-07T01:30:48;4.90;;;4.50;;
7383;SDS011;3733;47.994;8.820;2023-05-07T01:33:20;7.73;;;5.13;;
7383;SDS011;3733;47.994;8.820;2023-05-07T01:35:47;8.53;;;4.67;;
7383;SDS011;3733;47.994;8.820;2023-05-07T01:38:16;5.20;;;4.70;;
7383;SDS011;3733;47.994;8.820;2023-05-07T01:40:43;4.77;;;4.27;;
7383;SDS011;3733;47.994;8.820;2023-05-07T01:43:09;5.23;;;4.73;;
7383;SDS011;3733;47.994;8.820;2023-05-07T01:45:36;6.87;;;4.23;;
7383;SDS011;3733;47.994;8.820;2023-05-07T01:48:03;7.67;;;4.97;;
7383;SDS011;3733;47.994;8.820;2023-05-07T01:50:29;7.60;;;5.53;;
7383;SDS011;3733;47.994;8.820;2023-05-07T01:52:57;5.20;;;4.67;;
7383;SDS011;3733;47.994;8.820;2023-05-07T01:55:22;5.90;;;4.90;;
7383;SDS011;3733;47.994;8.820;2023-05-07T01:57:48;6.13;;;4.90;;
7383;SDS011;3733;47.994;8.820;2023-05-07T02:00:14;6.23;;;4.50;;
7383;SDS011;3733;47.994;8.820;2023-05-07T02:02:40;6.37;;;5.03;;
7383;SDS011;3733;47.994;8.820;2023-05-07T02:05:05;6.50;;;4.60;;
7383;SDS011;3733;47.994;8.820;2023-05-07T02:07:31;4.60;;;4.20;;
7383;SDS011;3733;47.994;8.820;2023-05-07T02:09:57;6.93;;;4.40;;
7383;SDS011;3733;47.994;8.820;2023-05-07T02:12:22;5.33;;;4.67;;
7383;SDS011;3733;47.994;8.820;2023-05-07T02:14:48;7.13;;;5.20;;
7383;SDS011;3733;47.994;8.820;2023-05-07T02:17:14;6.60;;;4.43;;
7383;SDS011;3733;47.994;8.820;2023-05-07T02:19:40;9.17;;;4.80;;
7383;SDS011;3733;47.994;8.820;2023-05-07T02:22:06;6.17;;;4.73;;
7383;SDS011;3733;47.994;8.820;2023-05-07T02:24:32;7.90;;;4.30;;
7383;SDS011;3733;47.994;8.820;2023-05-07T02:26:58;14.13;;;4.73;;
7383;SDS011;3733;47.994;8.820;2023-05-07T02:29:23;7.07;;;5.10;;
7383;SDS011;3733;47.994;8.820;2023-05-07T02:31:49;7.97;;;4.50;;
7383;SDS011;3733;47.994;8.820;2023-05-07T02:34:16;5.43;;;4.70;;
7383;SDS011;3733;47.994;8.820;2023-05-07T02:36:42;6.60;;;5.07;;
7383;SDS011;3733;47.994;8.820;2023-05-07T02:39:08;5.10;;;4.60;;
7383;SDS011;3733;47.994;8.820;2023-05-07T02:41:33;8.03;;;5.00;;
7383;SDS011;3733;47.994;8.820;2023-05-07T02:43:59;13.40;;;4.80;;
7383;SDS011;3733;47.994;8.820;2023-05-07T02:46:25;4.70;;;4.20;;
7383;SDS011;3733;47.994;8.820;2023-05-07T02:48:50;7.77;;;3.93;;
7383;SDS011;3733;47.994;8.820;2023-05-07T02:51:19;4.77;;;4.30;;
7383;SDS011;3733;47.994;8.820;2023-05-07T02:53:46;5.27;;;4.77;;
7383;SDS011;3733;47.994;8.820;2023-05-07T02:56:11;10.93;;;5.20;;
7383;SDS011;3733;47.994;8.820;2023-05-07T02:58:37;6.70;;;4.67;;
7383;SDS011;3733;47.994;8.820;2023-05-07T03:01:04;7.40;;;4.13;;
7383;SDS011;3733;47.994;8.820;2023-05-07T03:03:30;5.10;;;4.60;;
7383;SDS011;3733;47.994;8.820;2023-05-07T03:05:56;4.47;;;3.90;;
7383;SDS011;3733;47.994;8.820;2023-05-07T03:08:22;8.90;;;4.83;;
7383;SDS011;3733;47.994;8.820;2023-05-07T03:10:47;5.73;;;4.67;;
7383;SDS011;3733;47.994;8.820;2023-05-07T03:13:13;5.67;;;4.13;;
7383;SDS011;3733;47.994;8.820;2023-05-07T03:15:39;5.53;;;4.27;;
7383;SDS011;3733;47.994;8.820;2023-05-07T03:18:04;7.83;;;4.40;;
7383;SDS011;3733;47.994;8.820;2023-05-07T03:20:30;5.03;;;4.50;;
7383;SDS011;3733;47.994;8.820;2023-05-07T03:22:56;7.13;;;4.67;;
7383;SDS011;3733;47.994;8.820;2023-05-07T03:25:21;4.90;;;4.40;;
7383;SDS011;3733;47.994;8.820;2023-05-07T03:27:47;5.10;;;4.60;;
7383;SDS011;3733;47.994;8.820;2023-05-07T03:30:13;6.60;;;4.47;;
7383;SDS011;3733;47.994;8.820;2023-05-07T03:32:38;6.60;;;4.50;;
7383;SDS011;3733;47.994;8.820;2023-05-07T03:35:04;5.13;;;4.60;;
7383;SDS011;3733;47.994;8.820;2023-05-07T03:37:30;13.43;;;4.77;;
7383;SDS011;3733;47.994;8.820;2023-05-07T03:39:56;6.80;;;4.50;;
7383;SDS011;3733;47.994;8.820;2023-05-07T03:42:21;6.60;;;4.67;;
7383;SDS011;3733;47.994;8.820;2023-05-07T03:44:47;4.80;;;4.40;;
7383;SDS011;3733;47.994;8.820;2023-05-07T03:47:13;4.60;;;4.20;;
7383;SDS011;3733;47.994;8.820;2023-05-07T03:49:39;12.03;;;4.80;;
7383;SDS011;3733;47.994;8.820;2023-05-07T03:52:05;6.83;;;4.57;;
7383;SDS011;3733;47.994;8.820;2023-05-07T03:54:31;6.90;;;4.80;;
7383;SDS011;3733;47.994;8.820;2023-05-07T03:56:57;8.43;;;4.63;;
7383;SDS011;3733;47.994;8.820;2023-05-07T03:59:22;6.00;;;5.37;;
7383;SDS011;3733;47.994;8.820;2023-05-07T04:01:48;8.73;;;4.83;;
7383;SDS011;3733;47.994;8.820;2023-05-07T04:04:14;8.40;;;5.30;;
7383;SDS011;3733;47.994;8.820;2023-05-07T04:06:39;7.23;;;4.90;;
7383;SDS011;3733;47.994;8.820;2023-05-07T04:09:05;9.73;;;4.70;;
7383;SDS011;3733;47.994;8.820;2023-05-07T04:11:31;5.00;;;4.40;;
7383;SDS011;3733;47.994;8.820;2023-05-07T04:13:57;5.33;;;4.93;;
7383;SDS011;3733;47.994;8.820;2023-05-07T04:16:22;5.03;;;4.53;;
7383;SDS011;3733;47.994;8.820;2023-05-07T04:18:48;4.63;;;4.20;;
7383;SDS011;3733;47.994;8.820;2023-05-07T04:21:14;5.87;;;4.30;;
7383;SDS011;3733;47.994;8.820;2023-05-07T04:23:41;6.00;;;4.47;;
7383;SDS011;3733;47.994;8.820;2023-05-07T04:26:07;4.70;;;4.20;;
7383;SDS011;3733;47.994;8.820;2023-05-07T04:28:34;11.07;;;4.80;;
7383;SDS011;3733;47.994;8.820;2023-05-07T04:31:00;5.33;;;4.70;;
7383;SDS011;3733;47.994;8.820;2023-05-07T04:33:25;9.60;;;4.90;;
7383;SDS011;3733;47.994;8.820;2023-05-07T04:35:51;4.67;;;4.23;;
7383;SDS011;3733;47.994;8.820;2023-05-07T04:38:17;4.60;;;4.20;;
7383;SDS011;3733;47.994;8.820;2023-05-07T04:40:43;5.87;;;4.63;;
7383;SDS011;3733;47.994;8.820;2023-05-07T04:43:09;4.50;;;4.10;;
7383;SDS011;3733;47.994;8.820;2023-05-07T04:45:35;6.17;;;4.30;;
7383;SDS011;3733;47.994;8.820;2023-05-07T04:48:01;5.20;;;4.70;;
7383;SDS011;3733;47.994;8.820;2023-05-07T04:50:27;5.77;;;5.20;;
7383;SDS011;3733;47.994;8.820;2023-05-07T04:52:52;8.00;;;5.20;;
7383;SDS011;3733;47.994;8.820;2023-05-07T04:55:18;5.17;;;4.67;;
7383;SDS011;3733;47.994;8.820;2023-05-07T04:57:44;5.00;;;4.50;;
7383;SDS011;3733;47.994;8.820;2023-05-07T05:00:10;5.90;;;4.87;;
7383;SDS011;3733;47.994;8.820;2023-05-07T05:02:39;5.57;;;4.90;;
7383;SDS011;3733;47.994;8.820;2023-05-07T05:05:05;6.07;;;5.20;;
7383;SDS011;3733;47.994;8.820;2023-05-07T05:07:31;5.57;;;5.03;;
7383;SDS011;3733;47.994;8.820;2023-05-07T05:09:56;4.73;;;4.20;;
7383;SDS011;3733;47.994;8.820;2023-05-07T05:12:22;6.77;;;5.40;;
7383;SDS011;3733;47.994;8.820;2023-05-07T05:14:48;6.93;;;5.03;;
7383;SDS011;3733;47.994;8.820;2023-05-07T05:17:14;5.17;;;4.70;;
7383;SDS011;3733;47.994;8.820;2023-05-07T05:19:39;8.20;;;6.23;;
7383;SDS011;3733;47.994;8.820;2023-05-07T05:22:05;8.23;;;5.87;;
7383;SDS011;3733;47.994;8.820;2023-05-07T05:24:31;5.83;;;5.23;;
7383;SDS011;3733;47.994;8.820;2023-05-07T05:26:56;5.40;;;4.73;;
7383;SDS011;3733;47.994;8.820;2023-05-07T05:29:22;7.20;;;6.00;;
7383;SDS011;3733;47.994;8.820;2023-05-07T05:31:47;5.90;;;5.30;;
7383;SDS011;3733;47.994;8.820;2023-05-07T05:34:13;12.03;;;5.30;;
7383;SDS011;3733;47.994;8.820;2023-05-07T05:36:39;9.13;;;5.33;;
7383;SDS011;3733;47.994;8.820;2023-05-07T05:39:04;5.80;;;5.17;;
7383;SDS011;3733;47.994;8.820;2023-05-07T05:41:30;6.97;;;5.37;;
7383;SDS011;3733;47.994;8.820;2023-05-07T05:43:56;15.50;;;5.93;;
7383;SDS011;3733;47.994;8.820;2023-05-07T05:46:22;6.20;;;5.33;;
7383;SDS011;3733;47.994;8.820;2023-05-07T05:48:47;7.53;;;5.80;;
7383;SDS011;3733;47.994;8.820;2023-05-07T05:51:13;6.23;;;5.63;;
7383;SDS011;3733;47.994;8.820;2023-05-07T05:53:39;6.93;;;6.23;;
7383;SDS011;3733;47.994;8.820;2023-05-07T05:56:04;5.20;;;4.80;;
7383;SDS011;3733;47.994;8.820;2023-05-07T05:58:30;6.10;;;5.50;;
7383;SDS011;3733;47.994;8.820;2023-05-07T06:00:56;7.10;;;5.50;;
7383;SDS011;3733;47.994;8.820;2023-05-07T06:03:23;6.23;;;5.37;;
7383;SDS011;3733;47.994;8.820;2023-05-07T06:05:48;11.23;;;5.10;;
7383;SDS011;3733;47.994;8.820;2023-05-07T06:08:14;6.27;;;4.73;;
7383;SDS011;3733;47.994;8.820;2023-05-07T06:10:39;6.87;;;5.20;;
7383;SDS011;3733;47.994;8.820;2023-05-07T06:13:05;6.30;;;5.20;;
7383;SDS011;3733;47.994;8.820;2023-05-07T06:15:31;5.47;;;4.90;;
7383;SDS011;3733;47.994;8.820;2023-05-07T06:17:56;6.53;;;5.30;;
7383;SDS011;3733;47.994;8.820;2023-05-07T06:20:22;7.17;;;5.07;;
7383;SDS011;3733;47.994;8.820;2023-05-07T06:22:48;5.37;;;4.87;;
7383;SDS011;3733;47.994;8.820;2023-05-07T06:25:14;7.13;;;5.23;;
7383;SDS011;3733;47.994;8.820;2023-05-07T06:27:40;6.53;;;5.60;;
7383;SDS011;3733;47.994;8.820;2023-05-07T06:30:06;8.07;;;4.80;;
7383;SDS011;3733;47.994;8.820;2023-05-07T06:32:32;9.40;;;4.87;;
7383;SDS011;3733;47.994;8.820;2023-05-07T06:34:57;9.93;;;5.77;;
7383;SDS011;3733;47.994;8.820;2023-05-07T06:37:23;8.37;;;5.47;;
7383;SDS011;3733;47.994;8.820;2023-05-07T06:39:49;9.17;;;5.80;;
7383;SDS011;3733;47.994;8.820;2023-05-07T06:42:14;9.43;;;5.80;;
7383;SDS011;3733;47.994;8.820;2023-05-07T06:44:40;5.80;;;5.23;;
7383;SDS011;3733;47.994;8.820;2023-05-07T06:47:06;7.57;;;6.40;;
7383;SDS011;3733;47.994;8.820;2023-05-07T06:49:31;6.20;;;5.60;;
7383;SDS011;3733;47.994;8.820;2023-05-07T06:51:58;6.03;;;5.40;;
7383;SDS011;3733;47.994;8.820;2023-05-07T06:54:23;5.63;;;5.13;;
7383;SDS011;3733;47.994;8.820;2023-05-07T06:56:49;7.20;;;6.37;;
7383;SDS011;3733;47.994;8.820;2023-05-07T06:59:15;9.87;;;6.07;;
7383;SDS011;3733;47.994;8.820;2023-05-07T07:01:41;11.33;;;6.70;;
7383;SDS011;3733;47.994;8.820;2023-05-07T07:04:06;6.73;;;6.03;;
7383;SDS011;3733;47.994;8.820;2023-05-07T07:06:32;8.30;;;7.20;;
7383;SDS011;3733;47.994;8.820;2023-05-07T07:08:58;7.67;;;6.13;;
7383;SDS011;3733;47.994;8.820;2023-05-07T07:11:24;7.00;;;6.30;;
7383;SDS011;3733;47.994;8.820;2023-05-07T07:13:50;8.27;;;6.60;;
7383;SDS011;3733;47.994;8.820;2023-05-07T07:16:15;9.13;;;6.80;;
7383;SDS011;3733;47.994;8.820;2023-05-07T07:18:41;8.67;;;6.77;;
7383;SDS011;3733;47.994;8.820;2023-05-07T07:21:07;7.00;;;6.30;;
7383;SDS011;3733;47.994;8.820;2023-05-07T07:23:32;8.03;;;7.17;;
7383;SDS011;3733;47.994;8.820;2023-05-07T07:25:58;7.07;;;5.77;;
7383;SDS011;3733;47.994;8.820;2023-05-07T07:28:24;9.33;;;6.90;;
7383;SDS011;3733;47.994;8.820;2023-05-07T07:30:49;8.23;;;5.40;;
7383;SDS011;3733;47.994;8.820;2023-05-07T07:33:15;8.77;;;6.17;;
7383;SDS011;3733;47.994;8.820;2023-05-07T07:35:42;7.43;;;5.60;;
7383;SDS011;3733;47.994;8.820;2023-05-07T07:38:07;8.40;;;5.90;;
7383;SDS011;3733;47.994;8.820;2023-05-07T07:40:34;5.90;;;5.07;;
7383;SDS011;3733;47.994;8.820;2023-05-07T07:43:00;6.10;;;5.50;;
7383;SDS011;3733;47.994;8.820;2023-05-07T07:45:26;6.63;;;5.50;;
7383;SDS011;3733;47.994;8.820;2023-05-07T07:47:52;10.50;;;5.37;;
7383;SDS011;3733;47.994;8.820;2023-05-07T07:50:17;8.93;;;5.27;;
7383;SDS011;3733;47.994;8.820;2023-05-07T07:52:43;7.60;;;5.90;;
7383;SDS011;3733;47.994;8.820;2023-05-07T07:55:09;5.00;;;4.60;;
7383;SDS011;3733;47.994;8.820;2023-05-07T07:57:35;7.63;;;5.30;;
7383;SDS011;3733;47.994;8.820;2023-05-07T08:00:01;6.63;;;4.63;;
7383;SDS011;3733;47.994;8.820;2023-05-07T08:02:27;8.27;;;5.73;;
7383;SDS011;3733;47.994;8.820;2023-05-07T08:04:53;6.07;;;5.57;;
7383;SDS011;3733;47.994;8.820;2023-05-07T08:07:18;9.13;;;4.90;;
7383;SDS011;3733;47.994;8.820;2023-05-07T08:09:45;6.57;;;5.30;;
7383;SDS011;3733;47.994;8.820;2023-05-07T08:12:11;7.20;;;5.87;;
7383;SDS011;3733;47.994;8.820;2023-05-07T08:14:37;6.00;;;5.50;;
7383;SDS011;3733;47.994;8.820;2023-05-07T08:17:03;8.20;;;6.30;;
7383;SDS011;3733;47.994;8.820;2023-05-07T08:19:29;5.73;;;5.20;;
7383;SDS011;3733;47.994;8.820;2023-05-07T08:21:55;6.00;;;5.40;;
7383;SDS011;3733;47.994;8.820;2023-05-07T08:24:20;7.57;;;5.37;;
7383;SDS011;3733;47.994;8.820;2023-05-07T08:26:46;8.13;;;4.97;;
7383;SDS011;3733;47.994;8.820;2023-05-07T08:29:11;8.23;;;5.27;;
7383;SDS011;3733;47.994;8.820;2023-05-07T08:31:37;5.10;;;4.60;;
7383;SDS011;3733;47.994;8.820;2023-05-07T08:34:06;6.13;;;4.40;;
7383;SDS011;3733;47.994;8.820;2023-05-07T08:36:32;6.97;;;4.70;;
7383;SDS011;3733;47.994;8.820;2023-05-07T08:38:57;6.60;;;4.90;;
7383;SDS011;3733;47.994;8.820;2023-05-07T08:41:24;5.23;;;4.20;;
7383;SDS011;3733;47.994;8.820;2023-05-07T08:43:50;5.20;;;4.37;;
7383;SDS011;3733;47.994;8.820;2023-05-07T08:46:17;6.73;;;4.63;;
7383;SDS011;3733;47.994;8.820;2023-05-07T08:48:44;9.20;;;4.73;;
7383;SDS011;3733;47.994;8.820;2023-05-07T08:51:13;4.80;;;4.07;;
7383;SDS011;3733;47.994;8.820;2023-05-07T08:53:40;6.40;;;4.30;;
7383;SDS011;3733;47.994;8.820;2023-05-07T08:56:08;4.53;;;4.00;;
7383;SDS011;3733;47.994;8.820;2023-05-07T08:58:34;3.77;;;3.20;;
7383;SDS011;3733;47.994;8.820;2023-05-07T09:01:01;6.63;;;3.60;;
7383;SDS011;3733;47.994;8.820;2023-05-07T09:03:39;5.50;;;3.50;;
7383;SDS011;3733;47.994;8.820;2023-05-07T09:06:05;3.70;;;3.00;;
7383;SDS011;3733;47.994;8.820;2023-05-07T09:08:34;3.87;;;3.20;;
7383;SDS011;3733;47.994;8.820;2023-05-07T09:11:01;6.30;;;3.20;;
7383;SDS011;3733;47.994;8.820;2023-05-07T09:13:27;2.97;;;2.67;;
7383;SDS011;3733;47.994;8.820;2023-05-07T09:15:53;4.70;;;3.27;;
7383;SDS011;3733;47.994;8.820;2023-05-07T09:18:20;4.30;;;2.90;;
7383;SDS011;3733;47.994;8.820;2023-05-07T09:20:45;3.30;;;3.00;;
7383;SDS011;3733;47.994;8.820;2023-05-07T09:23:11;3.10;;;2.60;;
7383;SDS011;3733;47.994;8.820;2023-05-07T09:25:37;4.30;;;2.40;;
7383;SDS011;3733;47.994;8.820;2023-05-07T09:28:03;4.80;;;3.00;;
7383;SDS011;3733;47.994;8.820;2023-05-07T09:30:30;3.63;;;2.40;;
7383;SDS011;3733;47.994;8.820;2023-05-07T09:33:01;3.93;;;2.83;;
7383;SDS011;3733;47.994;8.820;2023-05-07T09:35:28;3.40;;;2.53;;
7383;SDS011;3733;47.994;8.820;2023-05-07T09:37:58;4.47;;;2.90;;
7383;SDS011;3733;47.994;8.820;2023-05-07T09:40:26;3.83;;;2.80;;
7383;SDS011;3733;47.994;8.820;2023-05-07T09:42:55;4.27;;;2.93;;
7383;SDS011;3733;47.994;8.820;2023-05-07T09:45:30;3.43;;;3.10;;
7383;SDS011;3733;47.994;8.820;2023-05-07T09:47:57;8.47;;;3.33;;
7383;SDS011;3733;47.994;8.820;2023-05-07T09:50:27;4.20;;;3.40;;
7383;SDS011;3733;47.994;8.820;2023-05-07T09:52:55;3.93;;;3.20;;
7383;SDS011;3733;47.994;8.820;2023-05-07T09:55:22;5.47;;;3.63;;
7383;SDS011;3733;47.994;8.820;2023-05-07T09:57:51;4.13;;;3.10;;
7383;SDS011;3733;47.994;8.820;2023-05-07T10:00:21;3.93;;;3.20;;
7383;SDS011;3733;47.994;8.820;2023-05-07T10:02:48;10.43;;;3.27;;
7383;SDS011;3733;47.994;8.820;2023-05-07T10:05:17;7.50;;;3.47;;
7383;SDS011;3733;47.994;8.820;2023-05-07T10:07:45;4.93;;;3.20;;
7383;SDS011;3733;47.994;8.820;2023-05-07T10:10:11;4.63;;;3.73;;
7383;SDS011;3733;47.994;8.820;2023-05-07T10:12:37;3.40;;;2.80;;
7383;SDS011;3733;47.994;8.820;2023-05-07T10:15:06;4.50;;;3.20;;
7383;SDS011;3733;47.994;8.820;2023-05-07T10:17:34;7.53;;;3.00;;
7383;SDS011;3733;47.994;8.820;2023-05-07T10:20:04;4.47;;;3.10;;
7383;SDS011;3733;47.994;8.820;2023-05-07T10:22:52;5.70;;;3.90;;
7383;SDS011;3733;47.994;8.820;2023-05-07T10:25:23;5.10;;;3.40;;
7383;SDS011;3733;47.994;8.820;2023-05-07T10:27:53;4.93;;;4.00;;
7383;SDS011;3733;47.994;8.820;2023-05-07T10:33:06;4.10;;;3.57;;
7383;SDS011;3733;47.994;8.820;2023-05-07T10:35:38;6.03;;;4.10;;
7383;SDS011;3733;47.994;8.820;2023-05-07T10:38:09;7.30;;;3.70;;
7383;SDS011;3733;47.994;8.820;2023-05-07T10:40:35;5.30;;;3.30;;
7383;SDS011;3733;47.994;8.820;2023-05-07T10:43:02;8.23;;;4.70;;
7383;SDS011;3733;47.994;8.820;2023-05-07T10:45:31;3.93;;;3.53;;
7383;SDS011;3733;47.994;8.820;2023-05-07T10:50:37;4.33;;;3.43;;
7383;SDS011;3733;47.994;8.820;2023-05-07T10:55:46;4.27;;;3.40;;
7383;SDS011;3733;47.994;8.820;2023-05-07T11:00:55;5.30;;;4.30;;
7383;SDS011;3733;47.994;8.820;2023-05-07T11:03:25;5.00;;;3.87;;
7383;SDS011;3733;47.994;8.820;2023-05-07T11:11:17;5.93;;;2.90;;
7383;SDS011;3733;47.994;8.820;2023-05-07T11:13:46;8.37;;;3.50;;
7383;SDS011;3733;47.994;8.820;2023-05-07T11:16:22;6.53;;;4.07;;
7383;SDS011;3733;47.994;8.820;2023-05-07T11:18:50;9.33;;;3.40;;
7383;SDS011;3733;47.994;8.820;2023-05-07T11:24:02;6.20;;;3.33;;
7383;SDS011;3733;47.994;8.820;2023-05-07T11:26:49;5.60;;;3.30;;
7383;SDS011;3733;47.994;8.820;2023-05-07T11:29:15;5.07;;;4.10;;
7383;SDS011;3733;47.994;8.820;2023-05-07T11:31:51;7.60;;;4.23;;
7383;SDS011;3733;47.994;8.820;2023-05-07T11:34:25;4.90;;;4.10;;
7383;SDS011;3733;47.994;8.820;2023-05-07T11:36:52;6.10;;;4.50;;
7383;SDS011;3733;47.994;8.820;2023-05-07T11:41:50;4.83;;;4.10;;
7383;SDS011;3733;47.994;8.820;2023-05-07T11:44:16;6.00;;;4.13;;
7383;SDS011;3733;47.994;8.820;2023-05-07T11:46:45;9.97;;;4.30;;
7383;SDS011;3733;47.994;8.820;2023-05-07T11:49:11;6.03;;;4.40;;
7383;SDS011;3733;47.994;8.820;2023-05-07T11:51:36;6.70;;;3.80;;
7383;SDS011;3733;47.994;8.820;2023-05-07T11:54:04;5.90;;;3.77;;
7383;SDS011;3733;47.994;8.820;2023-05-07T11:56:34;9.10;;;3.80;;
7383;SDS011;3733;47.994;8.820;2023-05-07T11:59:00;5.67;;;3.80;;
7383;SDS011;3733;47.994;8.820;2023-05-07T12:01:26;5.23;;;3.37;;
7383;SDS011;3733;47.994;8.820;2023-05-07T12:03:51;6.17;;;4.30;;
7383;SDS011;3733;47.994;8.820;2023-05-07T12:06:18;9.53;;;3.63;;
7383;SDS011;3733;47.994;8.820;2023-05-07T12:08:44;9.40;;;3.60;;
7383;SDS011;3733;47.994;8.820;2023-05-07T12:11:21;4.80;;;3.70;;
7383;SDS011;3733;47.994;8.820;2023-05-07T12:13:48;3.80;;;3.33;;
7383;SDS011;3733;47.994;8.820;2023-05-07T12:16:14;6.10;;;3.53;;
7383;SDS011;3733;47.994;8.820;2023-05-07T12:18:40;4.93;;;3.80;;
7383;SDS011;3733;47.994;8.820;2023-05-07T12:21:06;5.50;;;3.27;;
7383;SDS011;3733;47.994;8.820;2023-05-07T12:23:33;5.23;;;3.17;;
7383;SDS011;3733;47.994;8.820;2023-05-07T12:25:59;4.17;;;3.33;;
7383;SDS011;3733;47.994;8.820;2023-05-07T12:28:25;9.67;;;3.10;;
7383;SDS011;3733;47.994;8.820;2023-05-07T12:30:51;7.30;;;2.90;;
7383;SDS011;3733;47.994;8.820;2023-05-07T12:33:18;4.50;;;3.33;;
7383;SDS011;3733;47.994;8.820;2023-05-07T12:35:48;6.80;;;4.30;;
7383;SDS011;3733;47.994;8.820;2023-05-07T12:38:15;10.73;;;3.80;;
7383;SDS011;3733;47.994;8.820;2023-05-07T12:40:43;12.17;;;4.83;;
7383;SDS011;3733;47.994;8.820;2023-05-07T12:43:19;11.50;;;4.37;;
7383;SDS011;3733;47.994;8.820;2023-05-07T12:45:56;13.90;;;5.03;;
7383;SDS011;3733;47.994;8.820;2023-05-07T12:48:24;19.00;;;5.87;;
7383;SDS011;3733;47.994;8.820;2023-05-07T12:50:55;15.17;;;4.80;;
7383;SDS011;3733;47.994;8.820;2023-05-07T12:53:23;11.87;;;4.90;;
7383;SDS011;3733;47.994;8.820;2023-05-07T12:55:51;11.30;;;4.80;;
7383;SDS011;3733;47.994;8.820;2023-05-07T12:58:20;11.23;;;4.73;;
7383;SDS011;3733;47.994;8.820;2023-05-07T13:00:50;10.60;;;3.93;;
7383;SDS011;3733;47.994;8.820;2023-05-07T13:03:29;7.60;;;3.70;;
7383;SDS011;3733;47.994;8.820;2023-05-07T13:06:02;11.03;;;3.97;;
7383;SDS011;3733;47.994;8.820;2023-05-07T13:08:35;8.40;;;3.30;;
7383;SDS011;3733;47.994;8.820;2023-05-07T13:11:03;5.37;;;3.40;;
7383;SDS011;3733;47.994;8.820;2023-05-07T13:13:32;4.03;;;3.07;;
7383;SDS011;3733;47.994;8.820;2023-05-07T13:16:02;6.10;;;3.40;;
7383;SDS011;3733;47.994;8.820;2023-05-07T13:18:29;7.33;;;3.40;;
7383;SDS011;3733;47.994;8.820;2023-05-07T13:20:56;5.20;;;3.60;;
7383;SDS011;3733;47.994;8.820;2023-05-07T13:23:21;4.37;;;2.93;;
7383;SDS011;3733;47.994;8.820;2023-05-07T13:25:47;5.77;;;3.20;;
7383;SDS011;3733;47.994;8.820;2023-05-07T13:28:14;6.93;;;3.60;;
7383;SDS011;3733;47.994;8.820;2023-05-07T13:30:40;5.17;;;3.10;;
7383;SDS011;3733;47.994;8.820;2023-05-07T13:33:06;12.30;;;3.40;;
7383;SDS011;3733;47.994;8.820;2023-05-07T13:35:33;6.90;;;3.67;;
7383;SDS011;3733;47.994;8.820;2023-05-07T13:37:59;2.87;;;2.67;;
7383;SDS011;3733;47.994;8.820;2023-05-07T13:40:24;4.20;;;3.57;;
7383;SDS011;3733;47.994;8.820;2023-05-07T13:42:50;5.40;;;3.20;;
7383;SDS011;3733;47.994;8.820;2023-05-07T13:45:19;7.00;;;3.50;;
7383;SDS011;3733;47.994;8.820;2023-05-07T13:47:45;8.10;;;4.20;;
7383;SDS011;3733;47.994;8.820;2023-05-07T13:50:12;4.07;;;3.60;;
7383;SDS011;3733;47.994;8.820;2023-05-07T13:52:42;6.43;;;3.57;;
7383;SDS011;3733;47.994;8.820;2023-05-07T13:55:08;6.43;;;4.00;;
7383;SDS011;3733;47.994;8.820;2023-05-07T13:57:36;5.00;;;3.30;;
7383;SDS011;3733;47.994;8.820;2023-05-07T14:00:03;5.30;;;4.00;;
7383;SDS011;3733;47.994;8.820;2023-05-07T14:02:30;5.10;;;3.40;;
7383;SDS011;3733;47.994;8.820;2023-05-07T14:04:56;6.80;;;3.70;;
7383;SDS011;3733;47.994;8.820;2023-05-07T14:07:21;7.43;;;3.90;;
7383;SDS011;3733;47.994;8.820;2023-05-07T14:09:47;6.17;;;3.70;;
7383;SDS011;3733;47.994;8.820;2023-05-07T14:12:12;3.70;;;2.83;;
7383;SDS011;3733;47.994;8.820;2023-05-07T14:14:38;6.47;;;3.67;;
7383;SDS011;3733;47.994;8.820;2023-05-07T14:17:04;4.30;;;3.43;;
7383;SDS011;3733;47.994;8.820;2023-05-07T14:19:29;10.70;;;4.10;;
7383;SDS011;3733;47.994;8.820;2023-05-07T14:21:55;6.23;;;4.20;;
7383;SDS011;3733;47.994;8.820;2023-05-07T14:24:21;6.63;;;3.80;;
7383;SDS011;3733;47.994;8.820;2023-05-07T14:26:49;3.90;;;3.40;;
7383;SDS011;3733;47.994;8.820;2023-05-07T14:29:15;4.60;;;3.03;;
7383;SDS011;3733;47.994;8.820;2023-05-07T14:31:43;5.33;;;3.67;;
7383;SDS011;3733;47.994;8.820;2023-05-07T14:34:10;3.57;;;3.27;;
7383;SDS011;3733;47.994;8.820;2023-05-07T14:36:35;3.37;;;3.07;;
7383;SDS011;3733;47.994;8.820;2023-05-07T14:39:02;3.17;;;2.87;;
7383;SDS011;3733;47.994;8.820;2023-05-07T14:41:28;6.37;;;3.37;;
7383;SDS011;3733;47.994;8.820;2023-05-07T14:43:54;6.33;;;3.50;;
7383;SDS011;3733;47.994;8.820;2023-05-07T14:46:20;3.30;;;3.00;;
7383;SDS011;3733;47.994;8.820;2023-05-07T14:48:45;5.00;;;3.10;;
7383;SDS011;3733;47.994;8.820;2023-05-07T14:51:12;6.60;;;3.80;;
7383;SDS011;3733;47.994;8.820;2023-05-07T14:53:38;5.90;;;4.50;;
7383;SDS011;3733;47.994;8.820;2023-05-07T14:56:04;4.80;;;4.30;;
7383;SDS011;3733;47.994;8.820;2023-05-07T14:58:30;4.07;;;3.70;;
7383;SDS011;3733;47.994;8.820;2023-05-07T15:00:56;8.13;;;4.40;;
7383;SDS011;3733;47.994;8.820;2023-05-07T15:03:22;4.20;;;3.80;;
7383;SDS011;3733;47.994;8.820;2023-05-07T15:05:48;5.17;;;4.17;;
7383;SDS011;3733;47.994;8.820;2023-05-07T15:08:16;7.43;;;4.27;;
7383;SDS011;3733;47.994;8.820;2023-05-07T15:10:42;4.97;;;3.63;;
7383;SDS011;3733;47.994;8.820;2023-05-07T15:13:09;6.07;;;4.00;;
7383;SDS011;3733;47.994;8.820;2023-05-07T15:15:35;5.63;;;3.30;;
7383;SDS011;3733;47.994;8.820;2023-05-07T15:18:01;5.03;;;3.20;;
7383;SDS011;3733;47.994;8.820;2023-05-07T15:20:27;2.77;;;2.57;;
7383;SDS011;3733;47.994;8.820;2023-05-07T15:22:53;3.57;;;2.67;;
7383;SDS011;3733;47.994;8.820;2023-05-07T15:25:19;4.10;;;2.30;;
7383;SDS011;3733;47.994;8.820;2023-05-07T15:27:45;2.90;;;2.60;;
7383;SDS011;3733;47.994;8.820;2023-05-07T15:30:11;4.33;;;3.10;;
7383;SDS011;3733;47.994;8.820;2023-05-07T15:32:37;3.50;;;3.10;;